sensor_id;sensor_type;location;lat;lon;timestamp;temperature;humidity
71396;DHT22;59888;55.814;37.132;2023-07-31T00:00:53;18.05;53.17
71396;DHT22;59888;55.814;37.132;2023-07-31T00:03:19;18.00;52.76
71396;DHT22;59888;55.814;37.132;2023-07-31T00:05:45;17.97;53.44
71396;DHT22;59888;55.814;37.132;2023-07-31T00:08:11;17.97;53.87
71396;DHT22;59888;55.814;37.132;2023-07-31T00:10:37;18.02;54.83
71396;DHT22;59888;55.814;37.132;2023-07-31T00:13:03;18.04;53.40
71396;DHT22;59888;55.814;37.132;2023-07-31T00:15:29;18.04;54.13
71396;DHT22;59888;55.814;37.132;2023-07-31T00:17:55;18.04;53.75
71396;DHT22;59888;55.814;37.132;2023-07-31T00:20:21;18.06;54.97
71396;DHT22;59888;55.814;37.132;2023-07-31T00:22:47;18.08;54.26
71396;DHT22;59888;55.814;37.132;2023-07-31T00:25:13;18.08;53.64
71396;DHT22;59888;55.814;37.132;2023-07-31T00:27:39;18.07;53.46
71396;DHT22;59888;55.814;37.132;2023-07-31T00:30:11;18.05;53.26
71396;DHT22;59888;55.814;37.132;2023-07-31T00:32:37;17.95;53.09
71396;DHT22;59888;55.814;37.132;2023-07-31T00:35:03;17.90;53.07
71396;DHT22;59888;55.814;37.132;2023-07-31T00:37:31;17.85;53.43
71396;DHT22;59888;55.814;37.132;2023-07-31T00:39:57;17.87;53.65
71396;DHT22;59888;55.814;37.132;2023-07-31T00:42:24;17.84;53.56
71396;DHT22;59888;55.814;37.132;2023-07-31T00:44:50;17.82;53.41
71396;DHT22;59888;55.814;37.132;2023-07-31T00:47:16;17.81;54.51
71396;DHT22;59888;55.814;37.132;2023-07-31T00:49:43;17.81;53.98
71396;DHT22;59888;55.814;37.132;2023-07-31T00:52:10;17.78;54.31
71396;DHT22;59888;55.814;37.132;2023-07-31T00:54:36;17.76;54.51
71396;DHT22;59888;55.814;37.132;2023-07-31T00:57:02;17.77;54.42
71396;DHT22;59888;55.814;37.132;2023-07-31T00:59:29;17.75;54.33
71396;DHT22;59888;55.814;37.132;2023-07-31T01:01:55;17.70;54.30
71396;DHT22;59888;55.814;37.132;2023-07-31T01:04:21;17.72;54.19
71396;DHT22;59888;55.814;37.132;2023-07-31T01:07:04;17.67;54.83
71396;DHT22;59888;55.814;37.132;2023-07-31T01:10:00;17.66;54.73
71396;DHT22;59888;55.814;37.132;2023-07-31T01:12:30;17.62;54.12
71396;DHT22;59888;55.814;37.132;2023-07-31T01:15:08;17.59;55.26
71396;DHT22;59888;55.814;37.132;2023-07-31T01:17:41;17.61;55.15
71396;DHT22;59888;55.814;37.132;2023-07-31T01:20:27;17.59;55.70
71396;DHT22;59888;55.814;37.132;2023-07-31T01:23:20;17.58;55.13
71396;DHT22;59888;55.814;37.132;2023-07-31T01:26:03;17.55;54.87
71396;DHT22;59888;55.814;37.132;2023-07-31T01:28:55;17.58;55.45
71396;DHT22;59888;55.814;37.132;2023-07-31T01:31:24;17.62;54.03
71396;DHT22;59888;55.814;37.132;2023-07-31T01:33:57;17.61;54.16
71396;DHT22;59888;55.814;37.132;2023-07-31T01:36:25;17.58;53.64
71396;DHT22;59888;55.814;37.132;2023-07-31T01:38:52;17.55;53.45
71396;DHT22;59888;55.814;37.132;2023-07-31T01:41:18;17.51;53.44
71396;DHT22;59888;55.814;37.132;2023-07-31T01:43:46;17.51;53.43
71396;DHT22;59888;55.814;37.132;2023-07-31T01:46:12;17.45;53.53
71396;DHT22;59888;55.814;37.132;2023-07-31T01:48:38;17.36;53.74
71396;DHT22;59888;55.814;37.132;2023-07-31T01:51:05;17.31;53.99
71396;DHT22;59888;55.814;37.132;2023-07-31T01:53:31;17.33;54.20
71396;DHT22;59888;55.814;37.132;2023-07-31T01:55:58;17.31;54.08
71396;DHT22;59888;55.814;37.132;2023-07-31T01:58:24;17.26;54.11
71396;DHT22;59888;55.814;37.132;2023-07-31T02:00:50;17.23;54.34
71396;DHT22;59888;55.814;37.132;2023-07-31T02:03:16;17.25;54.85
71396;DHT22;59888;55.814;37.132;2023-07-31T02:05:46;17.31;55.63
71396;DHT22;59888;55.814;37.132;2023-07-31T02:08:12;17.36;56.07
71396;DHT22;59888;55.814;37.132;2023-07-31T02:10:38;17.45;55.72
71396;DHT22;59888;55.814;37.132;2023-07-31T02:13:05;17.49;55.20
71396;DHT22;59888;55.814;37.132;2023-07-31T02:15:32;17.53;55.04
71396;DHT22;59888;55.814;37.132;2023-07-31T02:17:59;17.56;55.33
71396;DHT22;59888;55.814;37.132;2023-07-31T02:20:25;17.64;54.91
71396;DHT22;59888;55.814;37.132;2023-07-31T02:22:51;17.66;55.28
71396;DHT22;59888;55.814;37.132;2023-07-31T02:25:18;17.72;54.83
71396;DHT22;59888;55.814;37.132;2023-07-31T02:27:46;17.74;55.00
71396;DHT22;59888;55.814;37.132;2023-07-31T02:30:14;17.80;55.13
71396;DHT22;59888;55.814;37.132;2023-07-31T02:32:40;17.84;54.84
71396;DHT22;59888;55.814;37.132;2023-07-31T02:35:07;17.89;54.79
71396;DHT22;59888;55.814;37.132;2023-07-31T02:37:34;17.92;54.48
71396;DHT22;59888;55.814;37.132;2023-07-31T02:40:00;17.98;54.94
71396;DHT22;59888;55.814;37.132;2023-07-31T02:42:35;17.96;54.35
71396;DHT22;59888;55.814;37.132;2023-07-31T02:45:01;17.98;54.33
71396;DHT22;59888;55.814;37.132;2023-07-31T02:47:32;18.02;54.18
71396;DHT22;59888;55.814;37.132;2023-07-31T02:49:58;18.06;54.43
71396;DHT22;59888;55.814;37.132;2023-07-31T02:52:25;18.09;54.70
71396;DHT22;59888;55.814;37.132;2023-07-31T02:54:52;18.12;54.46
71396;DHT22;59888;55.814;37.132;2023-07-31T02:57:17;18.22;54.63
71396;DHT22;59888;55.814;37.132;2023-07-31T02:59:43;18.27;54.56
71396;DHT22;59888;55.814;37.132;2023-07-31T03:02:10;18.36;53.97
71396;DHT22;59888;55.814;37.132;2023-07-31T03:04:36;18.40;54.11
71396;DHT22;59888;55.814;37.132;2023-07-31T03:07:03;18.51;53.96
71396;DHT22;59888;55.814;37.132;2023-07-31T03:09:29;18.61;53.64
71396;DHT22;59888;55.814;37.132;2023-07-31T03:11:55;18.72;53.12
71396;DHT22;59888;55.814;37.132;2023-07-31T03:14:21;18.80;53.27
71396;DHT22;59888;55.814;37.132;2023-07-31T03:16:48;18.92;53.10
71396;DHT22;59888;55.814;37.132;2023-07-31T03:19:14;19.02;52.58
71396;DHT22;59888;55.814;37.132;2023-07-31T03:21:40;19.11;52.49
71396;DHT22;59888;55.814;37.132;2023-07-31T03:24:06;19.20;52.16
71396;DHT22;59888;55.814;37.132;2023-07-31T03:26:33;19.26;52.14
71396;DHT22;59888;55.814;37.132;2023-07-31T03:28:59;19.32;51.94
71396;DHT22;59888;55.814;37.132;2023-07-31T03:31:26;19.38;52.20
71396;DHT22;59888;55.814;37.132;2023-07-31T03:33:52;19.39;51.27
71396;DHT22;59888;55.814;37.132;2023-07-31T03:36:18;19.36;52.53
71396;DHT22;59888;55.814;37.132;2023-07-31T03:38:44;19.41;52.07
71396;DHT22;59888;55.814;37.132;2023-07-31T03:41:10;19.46;52.04
71396;DHT22;59888;55.814;37.132;2023-07-31T03:43:36;19.50;51.66
71396;DHT22;59888;55.814;37.132;2023-07-31T03:46:02;19.46;52.03
71396;DHT22;59888;55.814;37.132;2023-07-31T03:48:28;19.51;51.94
71396;DHT22;59888;55.814;37.132;2023-07-31T03:50:58;19.60;51.99
71396;DHT22;59888;55.814;37.132;2023-07-31T03:53:24;19.74;52.21
71396;DHT22;59888;55.814;37.132;2023-07-31T03:55:50;19.84;51.55
71396;DHT22;59888;55.814;37.132;2023-07-31T03:58:16;19.98;51.53
71396;DHT22;59888;55.814;37.132;2023-07-31T04:00:43;20.05;51.29
71396;DHT22;59888;55.814;37.132;2023-07-31T04:03:09;20.12;50.68
71396;DHT22;59888;55.814;37.132;2023-07-31T04:05:38;20.19;50.62
71396;DHT22;59888;55.814;37.132;2023-07-31T04:08:04;20.17;50.61
71396;DHT22;59888;55.814;37.132;2023-07-31T04:10:30;20.10;50.59
71396;DHT22;59888;55.814;37.132;2023-07-31T04:12:59;20.17;50.44
71396;DHT22;59888;55.814;37.132;2023-07-31T04:15:26;20.28;50.35
71396;DHT22;59888;55.814;37.132;2023-07-31T04:17:52;20.36;50.37
71396;DHT22;59888;55.814;37.132;2023-07-31T04:20:18;20.41;49.47
71396;DHT22;59888;55.814;37.132;2023-07-31T04:22:44;20.37;51.20
71396;DHT22;59888;55.814;37.132;2023-07-31T04:25:10;20.39;50.37
71396;DHT22;59888;55.814;37.132;2023-07-31T04:27:36;20.53;50.30
71396;DHT22;59888;55.814;37.132;2023-07-31T04:30:02;20.61;50.07
71396;DHT22;59888;55.814;37.132;2023-07-31T04:32:29;20.70;50.05
71396;DHT22;59888;55.814;37.132;2023-07-31T04:34:55;20.79;50.02
71396;DHT22;59888;55.814;37.132;2023-07-31T04:37:21;20.94;49.89
71396;DHT22;59888;55.814;37.132;2023-07-31T04:39:47;21.06;49.53
71396;DHT22;59888;55.814;37.132;2023-07-31T04:42:13;21.14;49.24
71396;DHT22;59888;55.814;37.132;2023-07-31T04:44:39;21.16;49.31
71396;DHT22;59888;55.814;37.132;2023-07-31T04:47:05;21.24;49.56
71396;DHT22;59888;55.814;37.132;2023-07-31T04:49:32;21.24;49.40
71396;DHT22;59888;55.814;37.132;2023-07-31T04:51:58;21.32;49.44
71396;DHT22;59888;55.814;37.132;2023-07-31T04:54:24;21.48;49.08
71396;DHT22;59888;55.814;37.132;2023-07-31T04:56:50;21.61;48.73
71396;DHT22;59888;55.814;37.132;2023-07-31T04:59:18;21.75;48.57
71396;DHT22;59888;55.814;37.132;2023-07-31T05:01:44;21.91;48.45
71396;DHT22;59888;55.814;37.132;2023-07-31T05:04:13;22.10;48.34
71396;DHT22;59888;55.814;37.132;2023-07-31T05:06:41;22.23;47.90
71396;DHT22;59888;55.814;37.132;2023-07-31T05:09:07;22.26;47.57
71396;DHT22;59888;55.814;37.132;2023-07-31T05:11:35;22.31;47.12
71396;DHT22;59888;55.814;37.132;2023-07-31T05:14:01;22.43;47.18
71396;DHT22;59888;55.814;37.132;2023-07-31T05:16:27;22.62;47.10
71396;DHT22;59888;55.814;37.132;2023-07-31T05:18:53;22.64;46.23
71396;DHT22;59888;55.814;37.132;2023-07-31T05:21:19;22.63;46.12
71396;DHT22;59888;55.814;37.132;2023-07-31T05:23:45;22.58;45.82
71396;DHT22;59888;55.814;37.132;2023-07-31T05:26:11;22.61;45.62
71396;DHT22;59888;55.814;37.132;2023-07-31T05:28:37;22.58;45.51
71396;DHT22;59888;55.814;37.132;2023-07-31T05:31:05;22.75;45.57
71396;DHT22;59888;55.814;37.132;2023-07-31T05:33:31;22.87;45.16
71396;DHT22;59888;55.814;37.132;2023-07-31T05:35:57;22.96;44.59
71396;DHT22;59888;55.814;37.132;2023-07-31T05:38:23;23.09;44.93
71396;DHT22;59888;55.814;37.132;2023-07-31T05:40:49;23.34;44.62
71396;DHT22;59888;55.814;37.132;2023-07-31T05:43:15;23.51;43.89
71396;DHT22;59888;55.814;37.132;2023-07-31T05:45:42;23.69;44.00
71396;DHT22;59888;55.814;37.132;2023-07-31T05:48:09;23.76;43.74
71396;DHT22;59888;55.814;37.132;2023-07-31T05:50:35;23.94;43.37
71396;DHT22;59888;55.814;37.132;2023-07-31T05:53:02;24.01;43.14
71396;DHT22;59888;55.814;37.132;2023-07-31T05:55:28;24.20;42.95
71396;DHT22;59888;55.814;37.132;2023-07-31T05:57:54;24.24;42.53
71396;DHT22;59888;55.814;37.132;2023-07-31T06:00:20;24.38;42.72
71396;DHT22;59888;55.814;37.132;2023-07-31T06:02:47;24.55;42.48
71396;DHT22;59888;55.814;37.132;2023-07-31T06:05:14;24.72;42.29
71396;DHT22;59888;55.814;37.132;2023-07-31T06:07:40;24.84;41.39
71396;DHT22;59888;55.814;37.132;2023-07-31T06:10:06;24.84;41.39
71396;DHT22;59888;55.814;37.132;2023-07-31T06:12:33;24.78;41.25
71396;DHT22;59888;55.814;37.132;2023-07-31T06:14:59;24.89;41.23
71396;DHT22;59888;55.814;37.132;2023-07-31T06:17:26;24.99;41.21
71396;DHT22;59888;55.814;37.132;2023-07-31T06:19:52;25.03;40.58
71396;DHT22;59888;55.814;37.132;2023-07-31T06:22:18;24.94;40.35
71396;DHT22;59888;55.814;37.132;2023-07-31T06:24:44;24.93;39.92
71396;DHT22;59888;55.814;37.132;2023-07-31T06:27:11;24.95;36.59
71396;DHT22;59888;55.814;37.132;2023-07-31T06:29:40;24.86;39.58
71396;DHT22;59888;55.814;37.132;2023-07-31T06:32:07;25.04;39.71
71396;DHT22;59888;55.814;37.132;2023-07-31T06:34:33;25.03;38.28
71396;DHT22;59888;55.814;37.132;2023-07-31T06:36:59;25.04;40.49
71396;DHT22;59888;55.814;37.132;2023-07-31T06:39:25;25.14;39.75
71396;DHT22;59888;55.814;37.132;2023-07-31T06:41:51;25.34;40.07
71396;DHT22;59888;55.814;37.132;2023-07-31T06:44:17;25.54;39.78
71396;DHT22;59888;55.814;37.132;2023-07-31T06:46:46;25.62;38.03
71396;DHT22;59888;55.814;37.132;2023-07-31T06:49:12;25.67;39.07
71396;DHT22;59888;55.814;37.132;2023-07-31T06:51:41;25.77;38.60
71396;DHT22;59888;55.814;37.132;2023-07-31T06:54:08;25.83;38.37
71396;DHT22;59888;55.814;37.132;2023-07-31T06:56:34;25.94;38.70
71396;DHT22;59888;55.814;37.132;2023-07-31T06:59:00;26.12;38.28
71396;DHT22;59888;55.814;37.132;2023-07-31T07:01:27;26.17;38.26
71396;DHT22;59888;55.814;37.132;2023-07-31T07:03:54;26.20;37.99
71396;DHT22;59888;55.814;37.132;2023-07-31T07:06:22;26.18;37.88
71396;DHT22;59888;55.814;37.132;2023-07-31T07:08:48;26.25;38.10
71396;DHT22;59888;55.814;37.132;2023-07-31T07:11:15;26.39;38.11
71396;DHT22;59888;55.814;37.132;2023-07-31T07:13:40;26.52;37.86
71396;DHT22;59888;55.814;37.132;2023-07-31T07:16:06;26.66;36.95
71396;DHT22;59888;55.814;37.132;2023-07-31T07:18:33;26.70;37.54
71396;DHT22;59888;55.814;37.132;2023-07-31T07:20:59;26.89;37.38
71396;DHT22;59888;55.814;37.132;2023-07-31T07:23:27;26.90;36.47
71396;DHT22;59888;55.814;37.132;2023-07-31T07:25:53;26.81;36.99
71396;DHT22;59888;55.814;37.132;2023-07-31T07:28:23;26.73;34.14
71396;DHT22;59888;55.814;37.132;2023-07-31T07:30:53;26.57;36.56
71396;DHT22;59888;55.814;37.132;2023-07-31T07:33:19;26.58;36.78
71396;DHT22;59888;55.814;37.132;2023-07-31T07:35:45;26.64;36.19
71396;DHT22;59888;55.814;37.132;2023-07-31T07:38:14;26.76;36.20
71396;DHT22;59888;55.814;37.132;2023-07-31T07:40:41;26.72;35.47
71396;DHT22;59888;55.814;37.132;2023-07-31T07:43:07;26.77;36.11
71396;DHT22;59888;55.814;37.132;2023-07-31T07:45:34;26.78;35.66
71396;DHT22;59888;55.814;37.132;2023-07-31T07:48:00;26.75;36.35
71396;DHT22;59888;55.814;37.132;2023-07-31T07:50:26;26.65;36.22
71396;DHT22;59888;55.814;37.132;2023-07-31T07:52:52;26.64;36.27
71396;DHT22;59888;55.814;37.132;2023-07-31T07:55:18;26.78;36.49
71396;DHT22;59888;55.814;37.132;2023-07-31T07:57:45;26.86;35.84
71396;DHT22;59888;55.814;37.132;2023-07-31T08:00:12;27.05;35.95
71396;DHT22;59888;55.814;37.132;2023-07-31T08:02:43;27.17;34.02
71396;DHT22;59888;55.814;37.132;2023-07-31T08:05:09;27.24;35.34
71396;DHT22;59888;55.814;37.132;2023-07-31T08:07:36;26.99;33.01
71396;DHT22;59888;55.814;37.132;2023-07-31T08:10:02;26.87;34.68
71396;DHT22;59888;55.814;37.132;2023-07-31T08:12:31;26.87;33.70
71396;DHT22;59888;55.814;37.132;2023-07-31T08:14:57;26.84;32.54
71396;DHT22;59888;55.814;37.132;2023-07-31T08:17:23;26.78;33.52
71396;DHT22;59888;55.814;37.132;2023-07-31T08:19:50;26.86;33.77
71396;DHT22;59888;55.814;37.132;2023-07-31T08:22:16;26.98;32.93
71396;DHT22;59888;55.814;37.132;2023-07-31T08:24:42;26.92;32.38
71396;DHT22;59888;55.814;37.132;2023-07-31T08:27:08;27.00;32.03
71396;DHT22;59888;55.814;37.132;2023-07-31T08:29:34;27.05;32.99
71396;DHT22;59888;55.814;37.132;2023-07-31T08:32:00;27.26;33.22
71396;DHT22;59888;55.814;37.132;2023-07-31T08:34:26;27.52;33.04
71396;DHT22;59888;55.814;37.132;2023-07-31T08:36:52;27.70;33.54
71396;DHT22;59888;55.814;37.132;2023-07-31T08:39:18;27.83;32.22
71396;DHT22;59888;55.814;37.132;2023-07-31T08:41:44;27.91;31.62
71396;DHT22;59888;55.814;37.132;2023-07-31T08:44:10;27.94;32.90
71396;DHT22;59888;55.814;37.132;2023-07-31T08:46:37;28.08;33.44
71396;DHT22;59888;55.814;37.132;2023-07-31T08:49:05;27.95;31.77
71396;DHT22;59888;55.814;37.132;2023-07-31T08:51:34;27.82;31.56
71396;DHT22;59888;55.814;37.132;2023-07-31T08:54:01;27.51;29.89
71396;DHT22;59888;55.814;37.132;2023-07-31T08:56:31;27.34;31.53
71396;DHT22;59888;55.814;37.132;2023-07-31T08:59:00;27.43;30.64
71396;DHT22;59888;55.814;37.132;2023-07-31T09:01:29;27.43;31.39
71396;DHT22;59888;55.814;37.132;2023-07-31T09:03:56;27.59;31.95
71396;DHT22;59888;55.814;37.132;2023-07-31T09:06:25;27.69;28.73
71396;DHT22;59888;55.814;37.132;2023-07-31T09:08:52;27.71;31.78
71396;DHT22;59888;55.814;37.132;2023-07-31T09:11:18;27.84;31.94
71396;DHT22;59888;55.814;37.132;2023-07-31T09:13:45;27.84;31.49
71396;DHT22;59888;55.814;37.132;2023-07-31T09:16:12;28.04;31.34
71396;DHT22;59888;55.814;37.132;2023-07-31T09:18:54;28.43;30.51
71396;DHT22;59888;55.814;37.132;2023-07-31T09:21:23;28.55;28.86
71396;DHT22;59888;55.814;37.132;2023-07-31T09:23:50;28.37;29.58
71396;DHT22;59888;55.814;37.132;2023-07-31T09:26:30;28.29;29.71
71396;DHT22;59888;55.814;37.132;2023-07-31T09:28:58;28.15;30.27
71396;DHT22;59888;55.814;37.132;2023-07-31T09:31:40;27.96;29.55
71396;DHT22;59888;55.814;37.132;2023-07-31T09:34:10;28.01;31.05
71396;DHT22;59888;55.814;37.132;2023-07-31T09:36:44;28.10;31.03
71396;DHT22;59888;55.814;37.132;2023-07-31T09:39:11;28.11;30.86
71396;DHT22;59888;55.814;37.132;2023-07-31T09:41:39;28.06;31.35
71396;DHT22;59888;55.814;37.132;2023-07-31T09:44:06;28.30;31.46
71396;DHT22;59888;55.814;37.132;2023-07-31T09:46:35;28.57;31.06
71396;DHT22;59888;55.814;37.132;2023-07-31T09:49:09;28.57;28.88
71396;DHT22;59888;55.814;37.132;2023-07-31T09:51:36;28.65;30.69
71396;DHT22;59888;55.814;37.132;2023-07-31T09:54:15;28.80;29.29
71396;DHT22;59888;55.814;37.132;2023-07-31T09:56:46;28.69;28.45
71396;DHT22;59888;55.814;37.132;2023-07-31T09:59:17;28.50;29.55
71396;DHT22;59888;55.814;37.132;2023-07-31T10:01:45;28.21;28.71
71396;DHT22;59888;55.814;37.132;2023-07-31T10:04:13;28.01;30.23
71396;DHT22;59888;55.814;37.132;2023-07-31T10:06:40;27.80;28.29
71396;DHT22;59888;55.814;37.132;2023-07-31T10:09:10;27.90;30.60
71396;DHT22;59888;55.814;37.132;2023-07-31T10:12:03;27.97;28.95
71396;DHT22;59888;55.814;37.132;2023-07-31T10:14:35;28.18;30.60
71396;DHT22;59888;55.814;37.132;2023-07-31T10:17:02;28.42;30.49
71396;DHT22;59888;55.814;37.132;2023-07-31T10:19:30;28.62;29.52
71396;DHT22;59888;55.814;37.132;2023-07-31T10:21:56;28.72;30.05
71396;DHT22;59888;55.814;37.132;2023-07-31T10:24:24;28.69;30.19
71396;DHT22;59888;55.814;37.132;2023-07-31T10:26:52;28.89;30.32
71396;DHT22;59888;55.814;37.132;2023-07-31T10:29:20;29.12;30.26
71396;DHT22;59888;55.814;37.132;2023-07-31T10:31:48;29.27;30.38
71396;DHT22;59888;55.814;37.132;2023-07-31T10:34:14;29.38;30.20
71396;DHT22;59888;55.814;37.132;2023-07-31T10:36:41;29.43;28.85
71396;DHT22;59888;55.814;37.132;2023-07-31T10:39:33;29.46;29.28
71396;DHT22;59888;55.814;37.132;2023-07-31T10:41:59;29.47;29.71
71396;DHT22;59888;55.814;37.132;2023-07-31T10:44:25;29.42;29.85
71396;DHT22;59888;55.814;37.132;2023-07-31T10:46:54;29.42;29.64
71396;DHT22;59888;55.814;37.132;2023-07-31T10:49:22;29.32;30.11
71396;DHT22;59888;55.814;37.132;2023-07-31T10:51:48;29.34;29.90
71396;DHT22;59888;55.814;37.132;2023-07-31T10:54:15;29.32;28.95
71396;DHT22;59888;55.814;37.132;2023-07-31T10:56:45;29.11;30.01
71396;DHT22;59888;55.814;37.132;2023-07-31T10:59:13;28.92;28.83
71396;DHT22;59888;55.814;37.132;2023-07-31T11:01:56;28.74;28.31
71396;DHT22;59888;55.814;37.132;2023-07-31T11:04:29;28.38;29.71
71396;DHT22;59888;55.814;37.132;2023-07-31T11:06:58;28.10;31.00
71396;DHT22;59888;55.814;37.132;2023-07-31T11:09:31;27.99;30.37
71396;DHT22;59888;55.814;37.132;2023-07-31T11:11:59;27.80;31.53
71396;DHT22;59888;55.814;37.132;2023-07-31T11:14:26;27.79;31.18
71396;DHT22;59888;55.814;37.132;2023-07-31T11:16:52;27.60;32.25
71396;DHT22;59888;55.814;37.132;2023-07-31T11:19:25;27.57;32.53
71396;DHT22;59888;55.814;37.132;2023-07-31T11:21:52;27.42;32.67
71396;DHT22;59888;55.814;37.132;2023-07-31T11:24:19;27.20;32.79
71396;DHT22;59888;55.814;37.132;2023-07-31T11:26:52;27.02;33.31
71396;DHT22;59888;55.814;37.132;2023-07-31T11:29:20;26.85;33.60
71396;DHT22;59888;55.814;37.132;2023-07-31T11:31:47;26.76;33.73
71396;DHT22;59888;55.814;37.132;2023-07-31T11:34:14;26.67;33.80
71396;DHT22;59888;55.814;37.132;2023-07-31T11:36:40;26.67;34.01
71396;DHT22;59888;55.814;37.132;2023-07-31T11:39:10;26.64;33.96
71396;DHT22;59888;55.814;37.132;2023-07-31T11:41:40;26.72;34.13
71396;DHT22;59888;55.814;37.132;2023-07-31T11:44:10;26.79;33.82
71396;DHT22;59888;55.814;37.132;2023-07-31T11:46:36;26.92;33.97
71396;DHT22;59888;55.814;37.132;2023-07-31T11:49:02;27.06;33.70
71396;DHT22;59888;55.814;37.132;2023-07-31T11:51:29;27.15;33.25
71396;DHT22;59888;55.814;37.132;2023-07-31T11:54:00;27.16;33.15
71396;DHT22;59888;55.814;37.132;2023-07-31T11:56:27;27.31;33.51
71396;DHT22;59888;55.814;37.132;2023-07-31T11:58:57;27.41;33.31
71396;DHT22;59888;55.814;37.132;2023-07-31T12:01:24;27.63;33.21
71396;DHT22;59888;55.814;37.132;2023-07-31T12:03:53;27.87;33.15
71396;DHT22;59888;55.814;37.132;2023-07-31T12:06:20;28.05;32.86
71396;DHT22;59888;55.814;37.132;2023-07-31T12:08:47;28.00;32.20
71396;DHT22;59888;55.814;37.132;2023-07-31T12:11:13;27.85;31.63
71396;DHT22;59888;55.814;37.132;2023-07-31T12:13:41;27.79;32.04
71396;DHT22;59888;55.814;37.132;2023-07-31T12:16:07;27.66;32.53
71396;DHT22;59888;55.814;37.132;2023-07-31T12:18:37;27.57;32.45
71396;DHT22;59888;55.814;37.132;2023-07-31T12:21:06;27.46;32.81
71396;DHT22;59888;55.814;37.132;2023-07-31T12:23:35;27.55;33.13
71396;DHT22;59888;55.814;37.132;2023-07-31T12:26:15;27.39;32.57
71396;DHT22;59888;55.814;37.132;2023-07-31T12:28:47;27.28;32.70
71396;DHT22;59888;55.814;37.132;2023-07-31T12:33:47;27.08;33.21
71396;DHT22;59888;55.814;37.132;2023-07-31T12:36:16;27.06;33.66
71396;DHT22;59888;55.814;37.132;2023-07-31T12:38:42;27.07;33.88
71396;DHT22;59888;55.814;37.132;2023-07-31T12:41:09;27.04;33.96
71396;DHT22;59888;55.814;37.132;2023-07-31T12:43:39;26.96;33.99
71396;DHT22;59888;55.814;37.132;2023-07-31T12:46:06;26.84;34.32
71396;DHT22;59888;55.814;37.132;2023-07-31T12:48:37;26.75;34.63
71396;DHT22;59888;55.814;37.132;2023-07-31T12:51:03;26.48;36.02
71396;DHT22;59888;55.814;37.132;2023-07-31T12:53:30;26.09;37.14
71396;DHT22;59888;55.814;37.132;2023-07-31T12:55:56;25.84;38.88
71396;DHT22;59888;55.814;37.132;2023-07-31T12:58:23;25.58;38.47
71396;DHT22;59888;55.814;37.132;2023-07-31T13:00:49;25.38;39.99
71396;DHT22;59888;55.814;37.132;2023-07-31T13:03:15;25.10;41.72
71396;DHT22;59888;55.814;37.132;2023-07-31T13:05:41;24.93;40.63
71396;DHT22;59888;55.814;37.132;2023-07-31T13:08:07;24.97;40.83
71396;DHT22;59888;55.814;37.132;2023-07-31T13:10:33;24.90;40.21
71396;DHT22;59888;55.814;37.132;2023-07-31T13:12:59;24.93;40.43
71396;DHT22;59888;55.814;37.132;2023-07-31T13:15:25;24.94;40.86
71396;DHT22;59888;55.814;37.132;2023-07-31T13:17:51;25.04;40.05
71396;DHT22;59888;55.814;37.132;2023-07-31T13:20:17;25.28;39.49
71396;DHT22;59888;55.814;37.132;2023-07-31T13:22:43;25.37;39.81
71396;DHT22;59888;55.814;37.132;2023-07-31T13:25:09;25.43;39.30
71396;DHT22;59888;55.814;37.132;2023-07-31T13:27:36;25.53;39.17
71396;DHT22;59888;55.814;37.132;2023-07-31T13:30:02;25.64;39.43
71396;DHT22;59888;55.814;37.132;2023-07-31T13:32:32;25.76;39.15
71396;DHT22;59888;55.814;37.132;2023-07-31T13:35:00;26.01;38.84
71396;DHT22;59888;55.814;37.132;2023-07-31T13:37:26;26.22;38.45
71396;DHT22;59888;55.814;37.132;2023-07-31T13:39:53;26.48;38.27
71396;DHT22;59888;55.814;37.132;2023-07-31T13:42:19;26.62;37.59
71396;DHT22;59888;55.814;37.132;2023-07-31T13:44:45;26.73;37.51
71396;DHT22;59888;55.814;37.132;2023-07-31T13:47:14;26.83;37.40
71396;DHT22;59888;55.814;37.132;2023-07-31T13:49:40;27.04;37.26
71396;DHT22;59888;55.814;37.132;2023-07-31T13:52:11;27.42;36.94
71396;DHT22;59888;55.814;37.132;2023-07-31T13:54:39;28.64;37.08
71396;DHT22;59888;55.814;37.132;2023-07-31T13:57:05;31.33;33.77
71396;DHT22;59888;55.814;37.132;2023-07-31T13:59:32;33.09;30.81
71396;DHT22;59888;55.814;37.132;2023-07-31T14:01:59;32.68;29.42
71396;DHT22;59888;55.814;37.132;2023-07-31T14:04:25;31.49;30.07
71396;DHT22;59888;55.814;37.132;2023-07-31T14:06:51;30.56;31.93
71396;DHT22;59888;55.814;37.132;2023-07-31T14:09:17;29.95;33.08
71396;DHT22;59888;55.814;37.132;2023-07-31T14:11:44;29.36;33.54
71396;DHT22;59888;55.814;37.132;2023-07-31T14:14:10;28.91;34.14
71396;DHT22;59888;55.814;37.132;2023-07-31T14:16:36;28.61;34.94
71396;DHT22;59888;55.814;37.132;2023-07-31T14:19:02;28.70;35.28
71396;DHT22;59888;55.814;37.132;2023-07-31T14:21:29;29.12;35.63
71396;DHT22;59888;55.814;37.132;2023-07-31T14:23:55;29.96;34.45
71396;DHT22;59888;55.814;37.132;2023-07-31T14:26:22;29.82;34.17
71396;DHT22;59888;55.814;37.132;2023-07-31T14:28:48;29.66;34.22
71396;DHT22;59888;55.814;37.132;2023-07-31T14:31:14;29.11;35.00
71396;DHT22;59888;55.814;37.132;2023-07-31T14:33:40;28.57;36.09
71396;DHT22;59888;55.814;37.132;2023-07-31T14:36:06;28.86;36.02
71396;DHT22;59888;55.814;37.132;2023-07-31T14:38:32;29.59;34.95
71396;DHT22;59888;55.814;37.132;2023-07-31T14:40:59;29.54;34.51
71396;DHT22;59888;55.814;37.132;2023-07-31T14:43:25;29.19;34.12
71396;DHT22;59888;55.814;37.132;2023-07-31T14:45:51;28.69;34.62
71396;DHT22;59888;55.814;37.132;2023-07-31T14:48:19;28.47;35.48
71396;DHT22;59888;55.814;37.132;2023-07-31T14:50:45;28.26;35.61
71396;DHT22;59888;55.814;37.132;2023-07-31T14:53:11;28.05;35.90
71396;DHT22;59888;55.814;37.132;2023-07-31T14:55:37;27.81;36.21
71396;DHT22;59888;55.814;37.132;2023-07-31T14:58:03;27.56;36.57
71396;DHT22;59888;55.814;37.132;2023-07-31T15:00:29;27.37;36.80
71396;DHT22;59888;55.814;37.132;2023-07-31T15:02:55;27.24;36.92
71396;DHT22;59888;55.814;37.132;2023-07-31T15:05:24;27.13;37.08
71396;DHT22;59888;55.814;37.132;2023-07-31T15:07:50;27.05;37.11
71396;DHT22;59888;55.814;37.132;2023-07-31T15:10:17;26.81;37.30
71396;DHT22;59888;55.814;37.132;2023-07-31T15:12:43;26.70;37.27
71396;DHT22;59888;55.814;37.132;2023-07-31T15:15:10;26.49;37.35
71396;DHT22;59888;55.814;37.132;2023-07-31T15:17:36;26.30;37.52
71396;DHT22;59888;55.814;37.132;2023-07-31T15:20:02;26.28;37.62